createdAt,value
2023-01-29T00:00:10.415Z,94.43
2023-01-29T00:02:37.439Z,95.10
2023-01-29T00:05:25.478Z,96.75
2023-01-29T00:07:52.722Z,96.18
2023-01-29T00:10:19.572Z,95.68
2023-01-29T00:12:46.226Z,96.60
2023-01-29T00:15:12.840Z,95.65
2023-01-29T00:17:39.450Z,100.70
2023-01-29T00:20:06.540Z,96.80
2023-01-29T00:22:33.163Z,96.20
2023-01-29T00:24:59.848Z,95.07
2023-01-29T00:27:26.480Z,96.57
2023-01-29T00:30:09.156Z,94.80
2023-01-29T00:32:36.303Z,94.32
2023-01-29T00:35:03.394Z,96.25
2023-01-29T00:37:30.427Z,95.60
2023-01-29T00:39:57.098Z,96.43
2023-01-29T00:42:42.420Z,96.22
2023-01-29T00:45:10.675Z,95.78
2023-01-29T00:47:37.677Z,95.28
2023-01-29T00:50:07.586Z,96.22
2023-01-29T00:52:36.350Z,95.28
2023-01-29T00:55:05.625Z,95.65
2023-01-29T00:57:33.898Z,95.80
2023-01-29T01:00:01.586Z,95.72
2023-01-29T01:02:47.357Z,95.88
2023-01-29T01:05:19.700Z,95.00
2023-01-29T01:07:53.499Z,96.25
2023-01-29T01:10:32.449Z,93.93
2023-01-29T01:13:04.940Z,98.22
2023-01-29T01:15:35.004Z,94.50
2023-01-29T01:18:03.101Z,97.85
2023-01-29T01:20:33.139Z,95.88
2023-01-29T01:22:59.843Z,94.93
2023-01-29T01:25:27.459Z,96.70
2023-01-29T01:27:56.067Z,95.57
2023-01-29T01:30:24.379Z,95.63
2023-01-29T01:32:51.279Z,95.30
2023-01-29T01:35:18.167Z,94.43
2023-01-29T01:37:44.861Z,96.43
2023-01-29T01:40:23.231Z,95.88
2023-01-29T01:42:57.884Z,97.85
2023-01-29T01:45:36.030Z,95.35
2023-01-29T01:48:02.712Z,95.53
2023-01-29T01:51:03.852Z,99.82
2023-01-29T01:53:39.069Z,98.20
2023-01-29T01:56:14.751Z,94.07
2023-01-29T01:58:47.005Z,95.75
2023-01-29T02:01:13.888Z,95.10
2023-01-29T02:04:14.026Z,96.63
2023-01-29T02:07:00.003Z,93.20
2023-01-29T02:09:38.807Z,94.22
2023-01-29T02:12:07.002Z,96.50
2023-01-29T02:14:38.790Z,94.28
2023-01-29T02:17:24.208Z,93.78
2023-01-29T02:19:57.057Z,94.60
2023-01-29T02:22:47.095Z,94.38
2023-01-29T02:25:32.257Z,96.35
2023-01-29T02:28:23.583Z,95.45
2023-01-29T02:31:23.683Z,94.45
2023-01-29T02:34:16.736Z,96.22
2023-01-29T02:36:51.888Z,97.03
2023-01-29T02:39:36.350Z,96.40
2023-01-29T02:42:27.797Z,95.45
2023-01-29T02:45:05.074Z,95.95
2023-01-29T02:48:09.965Z,96.22
2023-01-29T02:50:54.310Z,94.53
2023-01-29T02:53:32.533Z,95.50
2023-01-29T02:56:36.907Z,95.50
2023-01-29T02:59:14.605Z,96.00
2023-01-29T03:01:57.636Z,95.57
2023-01-29T03:04:32.977Z,96.22
2023-01-29T03:07:22.465Z,97.90
2023-01-29T03:09:52.969Z,95.22
2023-01-29T03:12:33.862Z,96.00
2023-01-29T03:15:14.978Z,95.50
2023-01-29T03:17:51.077Z,95.13
2023-01-29T03:20:22.635Z,95.80
2023-01-29T03:22:55.034Z,97.88
2023-01-29T03:25:42.584Z,95.22
2023-01-29T03:28:33.543Z,95.38
2023-01-29T03:31:24.653Z,99.47
2023-01-29T03:34:00.090Z,95.80
2023-01-29T03:36:39.833Z,94.18
2023-01-29T03:39:09.426Z,98.75
2023-01-29T03:41:46.219Z,96.53
2023-01-29T03:44:31.130Z,95.13
2023-01-29T03:47:08.723Z,96.25
2023-01-29T03:49:54.945Z,96.47
2023-01-29T03:52:47.459Z,93.97
2023-01-29T03:55:24.623Z,98.25
2023-01-29T03:58:04.824Z,95.18
2023-01-29T04:01:11.613Z,97.20
2023-01-29T04:03:43.927Z,95.40
2023-01-29T04:06:24.100Z,96.38
2023-01-29T04:08:59.603Z,95.57
2023-01-29T04:11:28.633Z,95.72
2023-01-29T04:13:57.091Z,98.78
2023-01-29T04:16:35.607Z,96.50
2023-01-29T04:19:02.677Z,98.82
2023-01-29T04:21:31.850Z,95.90
2023-01-29T04:23:58.553Z,96.03
2023-01-29T04:26:28.335Z,97.57
2023-01-29T04:29:04.207Z,102.78
2023-01-29T04:31:44.278Z,96.47
2023-01-29T04:34:33.697Z,95.80
2023-01-29T04:37:03.405Z,94.90
2023-01-29T04:39:56.411Z,95.22
2023-01-29T04:42:33.372Z,97.80
2023-01-29T04:45:18.533Z,95.78
2023-01-29T04:47:58.267Z,96.70
2023-01-29T04:50:38.031Z,95.45
2023-01-29T04:53:17.474Z,99.07
2023-01-29T04:56:20.215Z,95.90
2023-01-29T04:58:52.881Z,95.03
2023-01-29T05:01:22.369Z,97.60
2023-01-29T05:03:52.074Z,97.53
2023-01-29T05:06:19.870Z,95.38
2023-01-29T05:08:49.673Z,103.10
2023-01-29T05:11:18.504Z,98.28
2023-01-29T05:13:47.843Z,95.95
2023-01-29T05:16:25.841Z,94.93
2023-01-29T05:18:52.688Z,104.75
2023-01-29T05:21:20.767Z,98.03
2023-01-29T05:23:58.883Z,96.03
2023-01-29T05:26:44.218Z,94.28
2023-01-29T05:29:12.230Z,96.70
2023-01-29T05:31:38.924Z,97.43
2023-01-29T05:34:05.585Z,100.30
2023-01-29T05:36:32.259Z,97.43
2023-01-29T05:38:58.891Z,97.25
2023-01-29T05:41:25.522Z,96.38
2023-01-29T05:43:52.163Z,95.63
2023-01-29T05:46:18.803Z,96.05
2023-01-29T05:48:45.432Z,96.20
2023-01-29T05:51:12.200Z,95.53
2023-01-29T05:53:38.811Z,96.28
2023-01-29T05:56:05.771Z,96.35
2023-01-29T05:58:33.087Z,96.05
2023-01-29T06:01:09.021Z,96.85
2023-01-29T06:03:35.677Z,96.38
2023-01-29T06:06:02.672Z,96.47
2023-01-29T06:08:29.321Z,94.95
2023-01-29T06:10:55.998Z,98.50
2023-01-29T06:13:23.709Z,95.28
2023-01-29T06:15:50.535Z,99.07
2023-01-29T06:18:17.218Z,95.97
2023-01-29T06:20:43.852Z,96.03
2023-01-29T06:23:10.527Z,96.25
2023-01-29T06:25:37.249Z,97.05
2023-01-29T06:28:04.112Z,96.18
2023-01-29T06:30:31.860Z,98.18
2023-01-29T06:33:01.565Z,95.90
2023-01-29T06:35:28.696Z,94.38
2023-01-29T06:37:56.385Z,95.18
2023-01-29T06:40:23.077Z,95.63
2023-01-29T06:42:49.695Z,96.40
2023-01-29T06:45:16.415Z,97.80
2023-01-29T06:47:43.001Z,99.03
2023-01-29T06:50:10.397Z,96.90
2023-01-29T06:52:36.991Z,97.93
2023-01-29T06:55:03.811Z,98.97
2023-01-29T06:57:30.457Z,96.53
2023-01-29T06:59:57.191Z,98.93
2023-01-29T07:02:23.849Z,97.53
2023-01-29T07:04:50.521Z,98.75
2023-01-29T07:07:17.238Z,96.22
2023-01-29T07:09:43.868Z,96.50
2023-01-29T07:12:11.237Z,96.18
2023-01-29T07:14:37.858Z,100.80
2023-01-29T07:17:04.566Z,96.00
2023-01-29T07:19:31.208Z,98.55
2023-01-29T07:21:57.914Z,98.05
2023-01-29T07:24:24.866Z,98.70
2023-01-29T07:26:51.594Z,100.90
2023-01-29T07:29:18.235Z,99.43
2023-01-29T07:31:44.970Z,100.25
2023-01-29T07:34:11.616Z,101.82
2023-01-29T07:36:38.255Z,100.80
2023-01-29T07:39:04.899Z,101.45
2023-01-29T07:41:31.524Z,97.65
2023-01-29T07:43:58.158Z,101.07
2023-01-29T07:46:24.781Z,98.53
2023-01-29T07:48:51.404Z,101.95
2023-01-29T07:51:18.504Z,98.35
2023-01-29T07:53:45.133Z,99.45
2023-01-29T07:56:11.777Z,100.68
2023-01-29T07:58:38.472Z,104.35
2023-01-29T08:01:07.412Z,100.10
2023-01-29T08:03:34.081Z,100.85
2023-01-29T08:06:00.937Z,100.38
2023-01-29T08:08:27.575Z,101.70
2023-01-29T08:10:54.277Z,103.47
2023-01-29T08:13:21.009Z,99.47
2023-01-29T08:15:47.867Z,100.93
2023-01-29T08:18:14.977Z,102.82
2023-01-29T08:20:41.666Z,100.05
2023-01-29T08:23:13.193Z,99.45
2023-01-29T08:25:39.914Z,100.38
2023-01-29T08:28:06.617Z,100.47
2023-01-29T08:30:34.795Z,101.55
2023-01-29T08:33:02.932Z,101.60
2023-01-29T08:35:29.629Z,100.18
2023-01-29T08:38:01.420Z,104.63
2023-01-29T08:40:29.482Z,105.20
2023-01-29T08:43:09.194Z,100.32
2023-01-29T08:45:39.809Z,102.75
2023-01-29T08:48:07.058Z,102.97
2023-01-29T08:50:34.975Z,102.30
2023-01-29T08:53:07.920Z,106.05
2023-01-29T08:55:38.781Z,102.43
2023-01-29T08:58:06.990Z,99.95
2023-01-29T09:00:34.486Z,96.85
2023-01-29T09:03:01.179Z,102.95
2023-01-29T09:05:28.245Z,99.43
2023-01-29T09:07:56.972Z,99.15
2023-01-29T09:10:23.617Z,99.35
2023-01-29T09:12:50.315Z,103.95
2023-01-29T09:15:17.206Z,99.05
2023-01-29T09:17:44.144Z,97.95
2023-01-29T09:20:11.309Z,98.65
2023-01-29T09:22:38.172Z,98.22
2023-01-29T09:25:05.175Z,97.45
2023-01-29T09:27:31.814Z,100.75
2023-01-29T09:29:58.444Z,99.15
2023-01-29T09:32:52.038Z,100.25
2023-01-29T09:35:11.739Z,98.43
2023-01-29T09:37:38.383Z,97.45
2023-01-29T09:40:05.642Z,99.10
2023-01-29T09:42:50.266Z,100.22
2023-01-29T09:45:24.772Z,97.13
2023-01-29T09:47:52.120Z,97.60
2023-01-29T09:50:28.207Z,98.82
2023-01-29T09:53:00.351Z,96.93
2023-01-29T09:55:39.123Z,97.63
2023-01-29T09:58:18.443Z,97.68
2023-01-29T10:01:05.193Z,98.82
2023-01-29T10:03:58.331Z,98.82
2023-01-29T10:06:53.515Z,97.18
2023-01-29T10:09:34.123Z,96.63
2023-01-29T10:12:21.022Z,98.97
2023-01-29T10:15:04.820Z,100.30
2023-01-29T10:17:50.294Z,98.43
2023-01-29T10:20:25.957Z,97.32
2023-01-29T10:23:07.679Z,104.55
2023-01-29T10:25:39.256Z,98.55
2023-01-29T10:28:20.018Z,97.88
2023-01-29T10:30:54.356Z,97.00
2023-01-29T10:34:02.945Z,100.30
2023-01-29T10:36:38.471Z,99.55
2023-01-29T10:39:05.120Z,97.57
2023-01-29T10:41:42.097Z,99.35
2023-01-29T10:44:15.180Z,97.75
2023-01-29T10:46:53.784Z,98.68
2023-01-29T10:49:39.124Z,95.88
2023-01-29T10:52:15.419Z,97.95
2023-01-29T10:55:14.932Z,97.80
2023-01-29T10:57:49.299Z,98.35
2023-01-29T11:00:23.790Z,96.50
2023-01-29T11:02:52.064Z,95.20
2023-01-29T11:05:29.951Z,94.85
2023-01-29T11:08:08.561Z,96.40
2023-01-29T11:10:42.806Z,96.72
2023-01-29T11:13:14.346Z,99.97
2023-01-29T11:15:41.022Z,97.68
2023-01-29T11:18:14.207Z,97.30
2023-01-29T11:20:45.570Z,98.05
2023-01-29T11:23:41.681Z,96.50
2023-01-29T11:26:12.498Z,94.22
2023-01-29T11:28:39.183Z,96.38
2023-01-29T11:31:29.895Z,99.22
2023-01-29T11:34:21.828Z,95.10
2023-01-29T11:37:03.394Z,96.03
2023-01-29T11:39:32.087Z,96.97
2023-01-29T11:42:04.042Z,99.18
2023-01-29T11:44:36.943Z,94.88
2023-01-29T11:47:23.900Z,96.47
2023-01-29T11:49:59.392Z,98.47
2023-01-29T11:52:38.592Z,96.03
2023-01-29T11:55:18.706Z,97.00
2023-01-29T11:57:56.450Z,98.50
2023-01-29T12:00:26.501Z,96.22
2023-01-29T12:03:01.418Z,95.93
2023-01-29T12:05:28.375Z,97.50
2023-01-29T12:07:57.793Z,96.57
2023-01-29T12:10:34.129Z,95.47
2023-01-29T12:13:10.371Z,96.95
2023-01-29T12:15:38.331Z,96.32
2023-01-29T12:18:10.760Z,94.43
2023-01-29T12:20:58.954Z,94.55
2023-01-29T12:23:49.916Z,96.38
2023-01-29T12:26:40.118Z,97.85
2023-01-29T12:29:27.979Z,98.38
2023-01-29T12:32:14.943Z,94.80
2023-01-29T12:34:53.159Z,97.75
2023-01-29T12:37:42.764Z,95.70
2023-01-29T12:40:16.089Z,96.00
2023-01-29T12:42:50.260Z,96.97
2023-01-29T12:45:20.759Z,94.78
2023-01-29T12:47:53.914Z,97.38
2023-01-29T12:50:25.116Z,99.03
2023-01-29T12:53:14.719Z,96.20
2023-01-29T12:55:55.510Z,95.50
2023-01-29T12:58:43.252Z,96.03
2023-01-29T13:01:17.158Z,94.80
2023-01-29T13:03:53.546Z,95.53
2023-01-29T13:06:30.306Z,95.30
2023-01-29T13:09:04.375Z,94.63
2023-01-29T13:11:44.259Z,98.22
2023-01-29T13:14:50.224Z,95.78
2023-01-29T13:17:37.695Z,94.10
2023-01-29T13:20:18.104Z,94.50
2023-01-29T13:22:48.036Z,95.32
2023-01-29T13:25:16.974Z,94.43
2023-01-29T13:27:45.818Z,98.03
2023-01-29T13:30:36.442Z,96.10
2023-01-29T13:33:11.785Z,95.60
2023-01-29T13:35:43.771Z,93.47
2023-01-29T13:38:26.906Z,93.35
2023-01-29T13:40:58.296Z,94.55
2023-01-29T13:43:25.185Z,95.85
2023-01-29T13:45:53.970Z,97.53
2023-01-29T13:48:29.510Z,95.22
2023-01-29T13:51:01.057Z,94.40
2023-01-29T13:53:33.577Z,94.35
2023-01-29T13:56:35.321Z,93.28
2023-01-29T13:59:05.392Z,93.63
2023-01-29T14:01:47.327Z,95.75
2023-01-29T14:04:22.560Z,93.85
2023-01-29T14:06:52.436Z,93.78
2023-01-29T14:09:37.244Z,94.18
2023-01-29T14:12:24.443Z,96.15
2023-01-29T14:14:57.135Z,95.63
2023-01-29T14:17:26.747Z,94.93
2023-01-29T14:19:59.333Z,95.65
2023-01-29T14:22:30.247Z,91.93
2023-01-29T14:25:01.672Z,92.50
2023-01-29T14:27:29.364Z,92.60
2023-01-29T14:30:01.798Z,94.57
2023-01-29T14:32:29.290Z,93.50
2023-01-29T14:35:18.245Z,93.25
2023-01-29T14:37:47.966Z,92.95
2023-01-29T14:40:21.753Z,94.65
2023-01-29T14:43:03.952Z,93.95
2023-01-29T14:45:36.448Z,97.18
2023-01-29T14:48:03.050Z,96.85
2023-01-29T14:50:31.626Z,95.00
2023-01-29T14:53:16.219Z,102.25
2023-01-29T14:55:50.322Z,95.03
2023-01-29T14:58:22.094Z,96.25
2023-01-29T15:00:53.291Z,94.68
2023-01-29T15:03:29.568Z,95.82
2023-01-29T15:05:59.404Z,95.80
2023-01-29T15:08:38.290Z,95.78
2023-01-29T15:11:30.876Z,96.28
2023-01-29T15:14:17.982Z,95.05
2023-01-29T15:17:09.919Z,97.63
2023-01-29T15:19:48.385Z,96.25
2023-01-29T15:22:21.737Z,98.53
2023-01-29T15:25:04.084Z,96.45
2023-01-29T15:27:31.159Z,98.63
2023-01-29T15:30:01.170Z,97.13
2023-01-29T15:32:37.975Z,101.07
2023-01-29T15:35:38.378Z,94.35
2023-01-29T15:38:18.228Z,97.90
2023-01-29T15:41:15.360Z,96.28
2023-01-29T15:43:48.411Z,97.93
2023-01-29T15:46:32.619Z,97.88
2023-01-29T15:49:06.389Z,97.30
2023-01-29T15:51:33.611Z,97.18
2023-01-29T15:54:03.462Z,100.32
2023-01-29T15:56:36.242Z,100.45
2023-01-29T15:59:09.678Z,98.70
2023-01-29T16:01:36.714Z,97.85
2023-01-29T16:04:04.274Z,98.90
2023-01-29T16:06:37.790Z,97.85
2023-01-29T16:09:05.879Z,96.38
2023-01-29T16:11:34.022Z,99.15
2023-01-29T16:14:02.747Z,99.07
2023-01-29T16:16:29.548Z,97.43
2023-01-29T16:19:01.030Z,98.45
2023-01-29T16:21:36.316Z,101.35
2023-01-29T16:24:11.639Z,99.53
2023-01-29T16:26:43.227Z,96.68
2023-01-29T16:29:13.020Z,100.85
2023-01-29T16:31:41.907Z,98.38
2023-01-29T16:34:28.961Z,98.57
2023-01-29T16:36:56.260Z,99.05
2023-01-29T16:39:36.034Z,101.70
2023-01-29T16:42:20.221Z,97.55
2023-01-29T16:44:51.616Z,102.10
2023-01-29T16:47:24.054Z,101.55
2023-01-29T16:49:53.635Z,100.22
2023-01-29T16:52:29.587Z,108.93
2023-01-29T16:55:01.937Z,100.88
2023-01-29T16:57:33.650Z,98.72
2023-01-29T17:00:03.517Z,101.78
2023-01-29T17:02:38.396Z,101.80
2023-01-29T17:05:09.530Z,101.65
2023-01-29T17:07:37.055Z,104.00
2023-01-29T17:10:06.392Z,109.13
2023-01-29T17:12:34.084Z,103.18
2023-01-29T17:15:04.557Z,101.72
2023-01-29T17:17:33.510Z,99.18
2023-01-29T17:20:16.811Z,101.47
2023-01-29T17:22:44.718Z,101.10
2023-01-29T17:25:15.384Z,105.70
2023-01-29T17:27:44.193Z,102.90
2023-01-29T17:30:23.579Z,103.07
2023-01-29T17:32:50.299Z,102.88
2023-01-29T17:35:17.902Z,102.15
2023-01-29T17:37:45.109Z,107.15
2023-01-29T17:40:25.773Z,109.18
2023-01-29T17:42:52.479Z,104.82
2023-01-29T17:45:19.474Z,103.85
2023-01-29T17:47:46.439Z,103.40
2023-01-29T17:50:23.608Z,105.25
2023-01-29T17:52:50.739Z,104.30
2023-01-29T17:55:17.661Z,101.63
2023-01-29T17:57:44.620Z,105.22
2023-01-29T18:00:23.093Z,105.50
2023-01-29T18:02:49.989Z,101.40
2023-01-29T18:05:18.058Z,102.78
2023-01-29T18:07:46.863Z,106.45
2023-01-29T18:10:17.451Z,102.47
2023-01-29T18:12:44.359Z,105.05
2023-01-29T18:15:11.509Z,105.55
2023-01-29T18:17:39.211Z,104.97
2023-01-29T18:20:21.722Z,105.45
2023-01-29T18:22:48.541Z,108.65
2023-01-29T18:25:16.262Z,106.05
2023-01-29T18:27:43.280Z,105.43
2023-01-29T18:30:11.131Z,107.47
2023-01-29T18:32:38.069Z,105.38
2023-01-29T18:35:07.967Z,105.45
2023-01-29T18:37:35.221Z,105.28
2023-01-29T18:40:01.861Z,105.13
2023-01-29T18:42:35.917Z,107.07
2023-01-29T18:45:03.743Z,109.13
2023-01-29T18:47:30.506Z,109.90
2023-01-29T18:49:57.193Z,104.22
2023-01-29T18:52:23.900Z,104.75
2023-01-29T18:54:50.525Z,107.63
2023-01-29T18:57:17.200Z,103.95
2023-01-29T19:00:04.528Z,109.00
2023-01-29T19:02:31.360Z,105.70
2023-01-29T19:04:58.015Z,114.43
2023-01-29T19:07:24.667Z,105.65
2023-01-29T19:09:51.332Z,107.50
2023-01-29T19:12:18.159Z,106.90
2023-01-29T19:14:44.778Z,107.00
2023-01-29T19:17:11.460Z,105.72
2023-01-29T19:19:38.078Z,110.82
2023-01-29T19:22:04.714Z,105.85
2023-01-29T19:24:36.234Z,107.20
2023-01-29T19:27:02.931Z,105.75
2023-01-29T19:29:29.676Z,106.63
2023-01-29T19:31:56.284Z,105.50
2023-01-29T19:34:23.020Z,108.78
2023-01-29T19:36:49.910Z,104.40
2023-01-29T19:39:16.667Z,110.05
2023-01-29T19:41:43.380Z,106.30
2023-01-29T19:44:11.340Z,103.43
2023-01-29T19:46:39.005Z,105.07
2023-01-29T19:49:06.665Z,105.65
2023-01-29T19:51:33.331Z,112.35
2023-01-29T19:53:59.946Z,106.32
2023-01-29T19:56:26.588Z,102.63
2023-01-29T19:58:57.171Z,111.00
2023-01-29T20:01:24.861Z,103.63
2023-01-29T20:03:51.910Z,106.68
2023-01-29T20:06:21.993Z,107.10
2023-01-29T20:08:48.696Z,102.75
2023-01-29T20:11:17.007Z,107.55
2023-01-29T20:13:45.962Z,106.22
2023-01-29T20:16:12.667Z,104.63
2023-01-29T20:18:39.381Z,103.70
2023-01-29T20:21:12.237Z,108.05
2023-01-29T20:23:39.899Z,108.57
2023-01-29T20:26:09.610Z,104.75
2023-01-29T20:28:36.590Z,107.10
2023-01-29T20:31:04.424Z,104.68
2023-01-29T20:33:31.953Z,102.30
2023-01-29T20:36:00.660Z,104.90
2023-01-29T20:38:30.425Z,109.18
2023-01-29T20:41:09.068Z,104.05
2023-01-29T20:43:36.191Z,107.00
2023-01-29T20:46:03.833Z,108.28
2023-01-29T20:48:31.323Z,115.60
2023-01-29T20:51:08.002Z,108.78
2023-01-29T20:53:34.937Z,111.07
2023-01-29T20:56:04.334Z,108.05
2023-01-29T20:58:31.685Z,111.07
2023-01-29T21:00:58.385Z,105.78
2023-01-29T21:03:25.464Z,112.63
2023-01-29T21:05:52.386Z,110.05
2023-01-29T21:08:19.046Z,107.60
2023-01-29T21:10:45.860Z,110.43
2023-01-29T21:13:12.697Z,113.50
2023-01-29T21:15:41.364Z,107.97
2023-01-29T21:18:08.011Z,112.20
2023-01-29T21:20:34.703Z,112.72
2023-01-29T21:23:04.205Z,110.15
2023-01-29T21:25:32.646Z,108.53
2023-01-29T21:27:59.435Z,108.40
2023-01-29T21:30:26.981Z,108.25
2023-01-29T21:32:53.739Z,109.47
2023-01-29T21:35:20.405Z,106.05
2023-01-29T21:37:47.030Z,105.95
2023-01-29T21:40:13.934Z,108.00
2023-01-29T21:42:59.077Z,111.20
2023-01-29T21:45:25.732Z,110.65
2023-01-29T21:47:52.512Z,105.97
2023-01-29T21:50:19.510Z,109.93
2023-01-29T21:52:46.414Z,110.88
2023-01-29T21:55:13.118Z,107.88
2023-01-29T21:57:42.675Z,107.03
2023-01-29T22:00:11.847Z,110.78
2023-01-29T22:02:38.682Z,109.10
2023-01-29T22:05:18.059Z,111.55
2023-01-29T22:07:45.868Z,110.57
2023-01-29T22:10:12.904Z,112.20
2023-01-29T22:12:40.026Z,107.18
2023-01-29T22:15:07.849Z,106.43
2023-01-29T22:17:35.298Z,109.13
2023-01-29T22:20:02.132Z,109.25
2023-01-29T22:22:28.769Z,109.40
2023-01-29T22:24:56.458Z,108.40
2023-01-29T22:27:23.304Z,104.55
2023-01-29T22:29:49.921Z,109.30
2023-01-29T22:32:16.659Z,105.88
2023-01-29T22:34:43.313Z,108.93
2023-01-29T22:37:09.951Z,109.25
2023-01-29T22:39:36.553Z,107.22
2023-01-29T22:42:03.365Z,108.15
2023-01-29T22:44:30.106Z,110.82
2023-01-29T22:46:56.800Z,108.32
2023-01-29T22:49:25.092Z,108.18
2023-01-29T22:52:09.842Z,110.18
2023-01-29T22:54:41.034Z,107.20
2023-01-29T22:57:12.874Z,107.40
2023-01-29T22:59:39.919Z,120.00
2023-01-29T23:02:07.734Z,111.72
2023-01-29T23:04:34.391Z,111.53
2023-01-29T23:07:01.060Z,108.00
2023-01-29T23:09:27.881Z,109.22
2023-01-29T23:11:54.543Z,112.07
2023-01-29T23:14:21.349Z,109.05
2023-01-29T23:16:47.975Z,110.78
2023-01-29T23:19:14.622Z,117.95
2023-01-29T23:21:41.281Z,111.47
2023-01-29T23:24:08.861Z,109.53
2023-01-29T23:26:54.232Z,113.63
2023-01-29T23:29:21.124Z,111.45
2023-01-29T23:31:47.993Z,109.88
2023-01-29T23:34:15.140Z,111.82
2023-01-29T23:36:42.398Z,108.88
2023-01-29T23:39:09.158Z,110.50
2023-01-29T23:41:36.036Z,112.20
2023-01-29T23:44:02.726Z,113.05
2023-01-29T23:46:29.499Z,119.78
2023-01-29T23:48:56.150Z,107.97
2023-01-29T23:51:22.832Z,113.80
2023-01-29T23:53:49.468Z,108.90
2023-01-29T23:56:16.108Z,109.70
2023-01-29T23:58:42.791Z,108.00
